createdAt,value
2019-02-05T00:02:26.204Z,26.07
2019-02-05T00:04:58.855Z,24.50
2019-02-05T00:07:30.869Z,27.93
2019-02-05T00:10:02.258Z,25.63
2019-02-05T00:12:33.850Z,28.97
2019-02-05T00:15:05.834Z,27.87
2019-02-05T00:17:38.810Z,26.37
2019-02-05T00:20:12.516Z,25.37
2019-02-05T00:22:45.368Z,27.70
2019-02-05T00:25:17.660Z,27.20
2019-02-05T00:27:49.598Z,25.63
2019-02-05T00:30:21.231Z,27.53
2019-02-05T00:32:52.640Z,29.03
2019-02-05T00:35:25.804Z,25.33
2019-02-05T00:37:57.280Z,26.30
2019-02-05T00:40:28.897Z,26.93
2019-02-05T00:43:00.225Z,26.70
2019-02-05T00:45:32.026Z,25.50
2019-02-05T00:48:04.893Z,26.03
2019-02-05T00:50:36.640Z,27.10
2019-02-05T00:53:08.587Z,25.20
2019-02-05T00:55:40.636Z,25.70
2019-02-05T00:58:13.203Z,24.40
2019-02-05T01:00:45.712Z,23.33
2019-02-05T01:03:17.441Z,27.80
2019-02-05T01:05:50.238Z,29.67
2019-02-05T01:08:22.133Z,35.03
2019-02-05T01:10:53.624Z,29.93
2019-02-05T01:13:25.398Z,32.10
2019-02-05T01:15:57.143Z,26.33
2019-02-05T01:18:28.910Z,42.27
2019-02-05T01:21:02.403Z,30.67
2019-02-05T01:23:34.280Z,25.90
2019-02-05T01:26:06.452Z,29.07
2019-02-05T01:28:38.156Z,26.97
2019-02-05T01:31:11.063Z,27.63
2019-02-05T01:33:42.848Z,25.73
2019-02-05T01:36:14.222Z,25.50
2019-02-05T01:38:48.535Z,25.90
2019-02-05T01:41:20.500Z,25.37
2019-02-05T01:43:54.277Z,26.40
2019-02-05T01:46:27.494Z,27.60
2019-02-05T01:49:00.780Z,28.43
2019-02-05T01:51:33.351Z,27.33
2019-02-05T01:54:04.999Z,26.70
2019-02-05T01:56:40.719Z,25.80
2019-02-05T01:59:09.814Z,25.07
2019-02-05T02:01:42.767Z,26.37
2019-02-05T02:04:14.162Z,25.20
2019-02-05T02:06:45.782Z,26.23
2019-02-05T02:09:17.409Z,26.20
2019-02-05T02:11:48.785Z,27.50
2019-02-05T02:14:20.294Z,27.87
2019-02-05T02:16:51.695Z,27.47
2019-02-05T02:19:23.165Z,25.77
2019-02-05T02:21:54.909Z,29.13
2019-02-05T02:24:27.257Z,28.03
2019-02-05T02:26:59.821Z,28.37
2019-02-05T02:29:31.209Z,26.73
2019-02-05T02:32:02.719Z,25.00
2019-02-05T02:34:35.582Z,29.13
2019-02-05T02:37:07.783Z,26.47
2019-02-05T02:39:39.409Z,26.37
2019-02-05T02:42:11.286Z,25.73
2019-02-05T02:44:42.991Z,26.33
2019-02-05T02:47:14.552Z,25.57
2019-02-05T02:49:46.662Z,26.70
2019-02-05T02:52:18.510Z,27.20
2019-02-05T02:54:51.589Z,29.37
2019-02-05T02:57:25.961Z,26.50
2019-02-05T02:59:57.845Z,25.47
2019-02-05T03:02:30.724Z,32.47
2019-02-05T03:05:02.148Z,37.70
2019-02-05T03:07:33.986Z,40.50
2019-02-05T03:10:07.720Z,34.77
2019-02-05T03:12:41.090Z,35.33
2019-02-05T03:15:13.157Z,30.97
2019-02-05T03:17:47.290Z,30.47
2019-02-05T03:20:19.282Z,27.03
2019-02-05T03:22:50.752Z,24.33
2019-02-05T03:25:23.268Z,25.17
2019-02-05T03:27:55.819Z,26.23
2019-02-05T03:30:27.503Z,27.47
2019-02-05T03:32:58.970Z,25.83
2019-02-05T03:35:30.346Z,25.53
2019-02-05T03:38:02.612Z,24.77
2019-02-05T03:41:01.702Z,24.20
2019-02-05T03:43:34.104Z,25.20
2019-02-05T03:46:18.743Z,25.40
2019-02-05T03:48:50.882Z,24.90
2019-02-05T03:51:52.856Z,29.33
2019-02-05T03:55:00.548Z,50.10
2019-02-05T03:58:25.117Z,36.10
2019-02-05T04:01:38.607Z,33.40
2019-02-05T04:04:57.185Z,33.27
2019-02-05T04:08:16.048Z,36.87
2019-02-05T04:11:20.945Z,30.47
2019-02-05T04:14:19.984Z,27.77
2019-02-05T04:17:40.438Z,33.87
2019-02-05T04:20:59.566Z,27.87
2019-02-05T04:24:18.587Z,35.87
2019-02-05T04:27:43.791Z,29.10
2019-02-05T04:30:42.128Z,29.93
2019-02-05T04:34:00.702Z,27.50
2019-02-05T04:37:14.945Z,29.60
2019-02-05T04:40:43.309Z,28.90
2019-02-05T04:43:52.956Z,27.97
2019-02-05T04:47:18.018Z,27.63
2019-02-05T04:50:11.946Z,29.37
2019-02-05T04:53:06.076Z,26.60
2019-02-05T04:56:02.863Z,24.20
2019-02-05T04:59:17.361Z,28.47
2019-02-05T05:02:34.427Z,28.27
2019-02-05T05:05:41.099Z,26.40
2019-02-05T05:09:16.047Z,27.13
2019-02-05T05:11:47.784Z,26.57
2019-02-05T05:14:19.652Z,26.77
2019-02-05T05:16:51.260Z,25.83
2019-02-05T05:19:23.705Z,27.27
2019-02-05T05:21:55.468Z,27.97
2019-02-05T05:24:27.135Z,25.70
2019-02-05T05:26:59.165Z,25.60
2019-02-05T05:29:33.145Z,27.57
2019-02-05T05:32:04.806Z,27.57
2019-02-05T05:34:38.323Z,27.00
2019-02-05T05:37:08.104Z,25.67
2019-02-05T05:39:39.507Z,24.93
2019-02-05T05:42:11.849Z,24.87
2019-02-05T05:44:45.294Z,25.93
2019-02-05T05:47:20.128Z,28.20
2019-02-05T05:49:51.971Z,27.87
2019-02-05T05:52:23.400Z,26.87
2019-02-05T05:54:55.084Z,26.83
2019-02-05T05:57:26.492Z,25.37
2019-02-05T05:59:57.970Z,31.43
2019-02-05T06:02:29.512Z,32.03
2019-02-05T06:05:01.095Z,24.60
2019-02-05T06:07:32.794Z,25.90
2019-02-05T06:10:07.192Z,24.47
2019-02-05T06:12:38.684Z,26.07
2019-02-05T06:15:11.706Z,23.70
2019-02-05T06:17:43.815Z,24.63
2019-02-05T06:20:17.327Z,22.90
2019-02-05T06:22:49.758Z,22.37
2019-02-05T06:25:21.336Z,23.10
2019-02-05T06:27:53.388Z,27.37
2019-02-05T06:30:24.759Z,24.50
2019-02-05T06:32:56.157Z,23.00
2019-02-05T06:35:28.068Z,23.53
2019-02-05T06:37:59.890Z,22.77
2019-02-05T06:40:31.795Z,23.67
2019-02-05T06:43:04.835Z,23.77
2019-02-05T06:45:36.505Z,22.50
2019-02-05T06:48:08.008Z,22.70
2019-02-05T06:50:39.746Z,22.07
2019-02-05T06:53:11.705Z,23.67
2019-02-05T06:55:43.040Z,24.20
2019-02-05T06:58:15.007Z,21.70
2019-02-05T07:00:46.474Z,23.50
2019-02-05T07:03:19.954Z,26.93
2019-02-05T07:05:51.995Z,23.80
2019-02-05T07:08:24.984Z,24.90
2019-02-05T07:10:57.379Z,24.43
2019-02-05T07:13:29.352Z,23.00
2019-02-05T07:16:02.124Z,23.70
2019-02-05T07:18:33.790Z,23.47
2019-02-05T07:21:05.448Z,23.83
2019-02-05T07:23:37.133Z,23.60
2019-02-05T07:26:10.024Z,21.57
2019-02-05T07:28:42.737Z,21.50
2019-02-05T07:31:14.298Z,22.23
2019-02-05T07:33:46.024Z,22.23
2019-02-05T07:36:17.516Z,20.97
2019-02-05T07:38:49.603Z,20.43
2019-02-05T07:41:21.465Z,22.00
2019-02-05T07:43:53.326Z,20.10
2019-02-05T07:46:25.287Z,21.83
2019-02-05T07:48:57.401Z,21.47
2019-02-05T07:51:29.342Z,23.77
2019-02-05T07:54:01.537Z,22.67
2019-02-05T07:56:33.051Z,25.33
2019-02-05T07:59:10.210Z,27.77
2019-02-05T08:01:42.322Z,27.47
2019-02-05T08:04:13.917Z,44.13
2019-02-05T08:06:45.399Z,24.83
2019-02-05T08:09:37.094Z,42.87
2019-02-05T08:12:09.399Z,36.47
2019-02-05T08:14:41.570Z,39.23
2019-02-05T08:17:14.378Z,22.60
2019-02-05T08:19:46.052Z,21.83
2019-02-05T08:22:18.898Z,30.30
2019-02-05T08:24:50.491Z,33.83
2019-02-05T08:27:23.677Z,33.83
2019-02-05T08:29:55.555Z,32.60
2019-02-05T08:32:27.577Z,30.87
2019-02-05T08:34:59.438Z,27.07
2019-02-05T08:37:31.004Z,24.53
2019-02-05T08:40:02.849Z,35.97
2019-02-05T08:42:34.841Z,27.00
2019-02-05T08:45:08.301Z,27.63
2019-02-05T08:47:39.759Z,23.13
2019-02-05T08:50:14.231Z,22.97
2019-02-05T08:52:45.861Z,21.80
2019-02-05T08:55:18.793Z,22.13
2019-02-05T08:57:51.153Z,24.63
2019-02-05T09:00:28.976Z,20.73
2019-02-05T09:03:01.260Z,21.43
2019-02-05T09:05:32.933Z,21.93
2019-02-05T09:08:04.977Z,23.60
2019-02-05T09:10:37.495Z,23.53
2019-02-05T09:13:09.263Z,18.60
2019-02-05T09:15:40.666Z,17.60
2019-02-05T09:18:12.517Z,16.63
2019-02-05T09:20:44.329Z,17.87
2019-02-05T09:23:15.986Z,16.50
2019-02-05T09:25:47.945Z,17.10
2019-02-05T09:28:19.927Z,18.90
2019-02-05T09:30:51.709Z,17.20
2019-02-05T09:33:24.470Z,17.13
2019-02-05T09:35:55.988Z,16.93
2019-02-05T09:38:28.052Z,16.60
2019-02-05T09:41:00.834Z,17.07
2019-02-05T09:43:32.626Z,16.07
2019-02-05T09:46:04.484Z,16.17
2019-02-05T09:48:36.242Z,16.30
2019-02-05T09:51:07.890Z,16.50
2019-02-05T09:53:39.760Z,17.23
2019-02-05T09:56:11.508Z,17.60
2019-02-05T09:58:43.202Z,16.90
2019-02-05T10:01:14.926Z,16.77
2019-02-05T10:03:46.678Z,16.57
2019-02-05T10:06:19.410Z,17.03
2019-02-05T10:08:51.393Z,16.73
2019-02-05T10:11:23.194Z,16.27
2019-02-05T10:13:54.872Z,16.43
2019-02-05T10:16:27.016Z,15.67
2019-02-05T10:18:58.775Z,15.70
2019-02-05T10:21:31.046Z,15.83
2019-02-05T10:24:02.675Z,15.67
2019-02-05T10:26:34.229Z,16.63
2019-02-05T10:29:08.479Z,16.40
2019-02-05T10:31:40.258Z,15.90
2019-02-05T10:34:13.679Z,16.80
2019-02-05T10:36:45.601Z,16.83
2019-02-05T10:39:17.753Z,16.63
2019-02-05T10:41:49.113Z,15.93
2019-02-05T10:44:22.513Z,17.20
2019-02-05T10:46:54.695Z,16.33
2019-02-05T10:49:26.391Z,16.70
2019-02-05T10:51:58.091Z,16.37
2019-02-05T10:54:29.771Z,16.70
2019-02-05T10:57:01.567Z,16.97
2019-02-05T10:59:33.307Z,15.83
2019-02-05T11:02:05.209Z,18.33
2019-02-05T11:04:55.183Z,27.90
2019-02-05T11:07:26.710Z,18.27
2019-02-05T11:10:00.042Z,18.97
2019-02-05T11:12:31.695Z,22.00
2019-02-05T11:15:03.363Z,20.73
2019-02-05T11:17:36.055Z,21.60
2019-02-05T11:20:11.463Z,17.90
2019-02-05T11:22:43.709Z,19.67
2019-02-05T11:25:17.156Z,19.73
2019-02-05T11:27:49.043Z,24.10
2019-02-05T11:30:26.046Z,18.07
2019-02-05T11:32:59.515Z,19.93
2019-02-05T11:35:31.416Z,19.33
2019-02-05T11:38:03.165Z,17.10
2019-02-05T11:40:36.711Z,27.57
2019-02-05T11:43:09.003Z,19.80
2019-02-05T11:45:40.950Z,25.97
2019-02-05T11:48:15.812Z,26.97
2019-02-05T11:50:48.694Z,19.43
2019-02-05T11:53:21.707Z,18.63
2019-02-05T11:55:53.617Z,17.27
2019-02-05T11:58:25.042Z,16.23
2019-02-05T12:01:03.814Z,17.50
2019-02-05T12:03:35.680Z,18.47
2019-02-05T12:06:08.841Z,16.13
2019-02-05T12:08:40.823Z,16.20
2019-02-05T12:11:12.283Z,20.20
2019-02-05T12:13:46.104Z,17.43
2019-02-05T12:16:18.781Z,16.83
2019-02-05T12:18:50.711Z,15.80
2019-02-05T12:21:22.395Z,15.83
2019-02-05T12:23:54.586Z,23.37
2019-02-05T12:26:26.325Z,25.07
2019-02-05T12:28:58.024Z,20.23
2019-02-05T12:31:29.529Z,16.50
2019-02-05T12:34:01.344Z,21.03
2019-02-05T12:36:33.522Z,18.37
2019-02-05T12:39:13.083Z,17.23
2019-02-05T12:41:46.135Z,18.23
2019-02-05T12:44:17.814Z,16.53
2019-02-05T12:46:49.814Z,15.87
2019-02-05T12:49:23.394Z,16.93
2019-02-05T12:51:55.795Z,15.13
2019-02-05T12:54:27.490Z,16.33
2019-02-05T12:56:59.905Z,14.10
2019-02-05T12:59:31.566Z,12.70
2019-02-05T13:02:03.587Z,12.73
2019-02-05T13:04:35.588Z,12.33
2019-02-05T13:07:07.322Z,14.23
2019-02-05T13:09:39.400Z,14.27
2019-02-05T13:12:11.461Z,14.40
2019-02-05T13:14:43.423Z,11.73
2019-02-05T13:17:15.230Z,11.23
2019-02-05T13:19:48.566Z,14.60
2019-02-05T13:22:20.180Z,15.20
2019-02-05T13:24:52.222Z,14.90
2019-02-05T13:27:23.885Z,13.40
2019-02-05T13:29:55.579Z,11.67
2019-02-05T13:32:27.215Z,12.07
2019-02-05T13:34:59.150Z,15.00
2019-02-05T13:37:30.858Z,12.70
2019-02-05T13:40:02.883Z,11.93
2019-02-05T13:42:34.713Z,11.80
2019-02-05T13:45:07.628Z,12.50
2019-02-05T13:47:39.212Z,12.30
2019-02-05T13:50:14.712Z,12.63
2019-02-05T13:52:48.346Z,12.53
2019-02-05T13:55:22.359Z,12.13
2019-02-05T13:57:55.181Z,11.80
2019-02-05T14:00:29.953Z,13.43
2019-02-05T14:03:02.161Z,12.57
2019-02-05T14:05:33.802Z,11.63
2019-02-05T14:08:06.087Z,11.17
2019-02-05T14:10:38.558Z,11.10
2019-02-05T14:13:10.597Z,11.63
2019-02-05T14:15:43.500Z,10.90
2019-02-05T14:18:15.234Z,11.30
2019-02-05T14:20:47.550Z,11.13
2019-02-05T14:23:19.084Z,11.83
2019-02-05T14:25:50.830Z,11.30
2019-02-05T14:28:23.060Z,11.87
2019-02-05T14:30:58.354Z,12.10
2019-02-05T14:33:31.675Z,11.47
2019-02-05T14:36:03.549Z,11.67
2019-02-05T14:38:35.557Z,11.60
2019-02-05T14:41:08.290Z,12.80
2019-02-05T14:43:40.189Z,12.27
2019-02-05T14:46:13.191Z,12.00
2019-02-05T14:48:45.236Z,12.07
2019-02-05T14:51:19.903Z,12.00
2019-02-05T14:53:51.534Z,12.07
2019-02-05T14:56:23.586Z,12.00
2019-02-05T14:58:55.310Z,11.47
2019-02-05T15:01:27.064Z,11.37
2019-02-05T15:04:01.170Z,10.50
2019-02-05T15:06:33.229Z,11.17
2019-02-05T15:09:05.698Z,11.40
2019-02-05T15:11:38.186Z,12.17
2019-02-05T15:14:19.724Z,11.40
2019-02-05T15:16:55.224Z,11.70
2019-02-05T15:19:27.990Z,11.93
2019-02-05T15:21:59.953Z,12.10
2019-02-05T15:24:37.933Z,11.90
2019-02-05T15:27:04.905Z,13.10
2019-02-05T15:29:36.679Z,11.97
2019-02-05T15:32:09.017Z,12.03
2019-02-05T15:34:40.991Z,12.53
2019-02-05T15:37:13.528Z,12.10
2019-02-05T15:39:47.061Z,12.47
2019-02-05T15:42:19.979Z,12.07
2019-02-05T15:44:52.335Z,12.80
2019-02-05T15:47:25.604Z,12.30
2019-02-05T15:50:05.776Z,13.43
2019-02-05T15:52:33.169Z,14.80
2019-02-05T15:55:06.142Z,14.13
2019-02-05T15:57:39.021Z,14.50
2019-02-05T16:00:12.391Z,14.43
2019-02-05T16:02:44.705Z,14.90
2019-02-05T16:05:16.521Z,16.30
2019-02-05T16:07:48.233Z,16.93
2019-02-05T16:10:20.055Z,17.20
2019-02-05T16:12:51.859Z,17.33
2019-02-05T16:15:23.645Z,16.47
2019-02-05T16:17:55.529Z,19.00
2019-02-05T16:20:28.704Z,17.10
2019-02-05T16:23:00.271Z,18.07
2019-02-05T16:25:32.023Z,17.23
2019-02-05T16:28:03.716Z,18.00
2019-02-05T16:30:37.315Z,18.03
2019-02-05T16:33:10.755Z,18.43
2019-02-05T16:35:42.868Z,25.20
2019-02-05T16:38:14.747Z,17.73
2019-02-05T16:40:47.155Z,18.37
2019-02-05T16:43:19.908Z,19.53
2019-02-05T16:45:52.193Z,20.27
2019-02-05T16:48:23.708Z,17.87
2019-02-05T16:50:55.796Z,19.50
2019-02-05T16:53:27.447Z,15.97
2019-02-05T16:55:59.179Z,16.53
2019-02-05T16:58:31.256Z,14.43
2019-02-05T17:01:03.136Z,14.60
2019-02-05T17:03:37.251Z,13.97
2019-02-05T17:06:08.842Z,14.80
2019-02-05T17:08:40.956Z,13.40
2019-02-05T17:11:12.932Z,13.37
2019-02-05T17:13:44.476Z,13.40
2019-02-05T17:16:16.151Z,14.33
2019-02-05T17:18:49.456Z,12.90
2019-02-05T17:21:22.174Z,14.53
2019-02-05T17:23:55.244Z,12.50
2019-02-05T17:26:27.877Z,12.33
2019-02-05T17:28:59.444Z,12.37
2019-02-05T17:31:31.071Z,9.37
2019-02-05T17:34:02.871Z,8.53
2019-02-05T17:36:36.384Z,9.60
2019-02-05T17:39:11.874Z,10.20
2019-02-05T17:41:48.428Z,10.33
2019-02-05T17:44:20.302Z,10.47
2019-02-05T17:46:52.854Z,9.70
2019-02-05T17:49:24.856Z,11.37
2019-02-05T17:51:56.915Z,8.87
2019-02-05T17:54:30.782Z,9.00
2019-02-05T17:57:07.667Z,7.40
2019-02-05T17:59:43.158Z,7.40
2019-02-05T18:02:15.716Z,7.50
2019-02-05T18:04:49.165Z,8.70
2019-02-05T18:07:21.153Z,7.00
2019-02-05T18:09:53.329Z,10.47
2019-02-05T18:12:25.057Z,12.57
2019-02-05T18:14:57.109Z,22.20
2019-02-05T18:17:28.957Z,19.73
2019-02-05T18:20:00.693Z,10.60
2019-02-05T18:22:32.714Z,12.17
2019-02-05T18:25:05.267Z,5.23
2019-02-05T18:27:37.940Z,8.40
2019-02-05T18:30:16.793Z,4.53
2019-02-05T18:32:51.017Z,17.53
2019-02-05T18:35:23.687Z,6.57
2019-02-05T18:37:55.622Z,4.80
2019-02-05T18:40:27.730Z,6.13
2019-02-05T18:42:59.367Z,11.80
2019-02-05T18:45:31.126Z,8.43
2019-02-05T18:48:02.820Z,11.63
2019-02-05T18:50:34.551Z,27.20
2019-02-05T18:53:07.813Z,36.27
2019-02-05T18:55:39.881Z,43.27
2019-02-05T18:58:14.600Z,16.57
2019-02-05T19:00:46.335Z,13.30
2019-02-05T19:03:18.049Z,12.47
2019-02-05T19:05:49.985Z,9.33
2019-02-05T19:08:21.589Z,8.10
2019-02-05T19:10:53.230Z,12.63
2019-02-05T19:13:24.768Z,17.37
2019-02-05T19:15:58.107Z,9.97
2019-02-05T19:18:29.819Z,8.77
2019-02-05T19:21:01.711Z,8.43
2019-02-05T19:23:34.707Z,5.80
2019-02-05T19:26:13.549Z,6.20
2019-02-05T19:28:46.549Z,6.27
2019-02-05T19:31:38.802Z,6.37
2019-02-05T19:34:11.215Z,6.27
2019-02-05T19:36:43.836Z,6.10
2019-02-05T19:39:15.704Z,6.40
2019-02-05T19:41:47.251Z,6.80
2019-02-05T19:44:20.630Z,6.77
2019-02-05T19:46:59.577Z,7.17
2019-02-05T19:49:33.419Z,7.63
2019-02-05T19:52:05.585Z,7.87
2019-02-05T19:54:37.241Z,7.87
2019-02-05T19:57:08.946Z,7.83
2019-02-05T19:59:42.332Z,8.00
2019-02-05T20:02:13.960Z,7.90
2019-02-05T20:04:45.585Z,8.83
2019-02-05T20:07:17.088Z,8.10
2019-02-05T20:09:48.718Z,7.83
2019-02-05T20:12:22.070Z,7.57
2019-02-05T20:14:53.896Z,7.73
2019-02-05T20:17:27.819Z,7.53
2019-02-05T20:20:00.740Z,8.77
2019-02-05T20:22:33.792Z,8.20
2019-02-05T20:25:06.324Z,9.03
2019-02-05T20:27:39.452Z,8.90
2019-02-05T20:30:13.532Z,9.13
2019-02-05T20:32:45.446Z,8.73
2019-02-05T20:35:17.336Z,8.77
2019-02-05T20:37:49.487Z,9.73
2019-02-05T20:40:21.168Z,10.07
2019-02-05T20:42:53.173Z,9.20
2019-02-05T20:45:26.931Z,9.17
2019-02-05T20:47:58.671Z,9.40
2019-02-05T20:50:32.350Z,9.47
2019-02-05T20:53:13.553Z,9.97
2019-02-05T20:55:37.509Z,10.00
2019-02-05T20:58:10.372Z,10.70
2019-02-05T21:00:42.275Z,10.17
2019-02-05T21:03:14.078Z,11.03
2019-02-05T21:05:47.007Z,10.77
2019-02-05T21:08:18.718Z,11.47
2019-02-05T21:10:51.609Z,10.83
2019-02-05T21:13:27.967Z,10.23
2019-02-05T21:16:00.703Z,10.50
2019-02-05T21:18:33.121Z,11.17
2019-02-05T21:21:06.475Z,10.70
2019-02-05T21:23:38.239Z,11.20
2019-02-05T21:26:09.836Z,10.83
2019-02-05T21:28:41.608Z,11.53
2019-02-05T21:31:15.269Z,11.50
2019-02-05T21:33:47.009Z,11.17
2019-02-05T21:36:20.075Z,10.83
2019-02-05T21:38:53.381Z,11.53
2019-02-05T21:41:25.639Z,11.73
2019-02-05T21:43:57.083Z,12.00
2019-02-05T21:46:28.689Z,11.73
2019-02-05T21:49:00.435Z,12.00
2019-02-05T21:51:40.283Z,12.20
2019-02-05T21:54:06.770Z,13.83
2019-02-05T21:56:38.952Z,13.33
2019-02-05T21:59:11.006Z,13.17
2019-02-05T22:01:43.286Z,12.17
2019-02-05T22:04:26.414Z,12.80
2019-02-05T22:06:48.162Z,12.27
2019-02-05T22:09:19.869Z,12.77
2019-02-05T22:11:51.758Z,12.33
2019-02-05T22:14:23.372Z,13.80
2019-02-05T22:16:57.212Z,15.30
2019-02-05T22:19:29.168Z,11.33
2019-02-05T22:22:00.843Z,12.33
2019-02-05T22:24:32.312Z,11.53
2019-02-05T22:27:04.514Z,11.97
2019-02-05T22:29:36.278Z,12.17
2019-02-05T22:32:08.390Z,12.37
2019-02-05T22:34:39.917Z,11.60
2019-02-05T22:37:11.738Z,11.77
2019-02-05T22:39:43.890Z,12.60
2019-02-05T22:42:15.462Z,14.00
2019-02-05T22:44:47.309Z,32.40
2019-02-05T22:47:20.581Z,21.90
2019-02-05T22:49:55.742Z,22.20
2019-02-05T22:52:27.398Z,11.67
2019-02-05T22:55:00.483Z,11.13
2019-02-05T22:57:32.747Z,11.40
2019-02-05T23:00:08.276Z,11.77
2019-02-05T23:02:40.428Z,12.33
2019-02-05T23:05:38.338Z,19.10
2019-02-05T23:08:10.794Z,36.50
2019-02-05T23:11:17.677Z,24.83
2019-02-05T23:13:51.789Z,14.80
2019-02-05T23:16:23.361Z,22.30
2019-02-05T23:18:56.208Z,20.97
2019-02-05T23:21:27.659Z,23.47
2019-02-05T23:23:59.553Z,15.77
2019-02-05T23:26:31.641Z,17.27
2019-02-05T23:29:04.021Z,25.37
2019-02-05T23:31:35.728Z,21.93
2019-02-05T23:34:07.112Z,21.33
2019-02-05T23:36:39.488Z,16.33
2019-02-05T23:39:11.806Z,19.90
2019-02-05T23:41:43.235Z,15.93
2019-02-05T23:44:14.585Z,16.97
2019-02-05T23:46:46.264Z,20.53
2019-02-05T23:49:19.370Z,13.17
2019-02-05T23:51:51.256Z,13.60
2019-02-05T23:54:24.525Z,12.00
2019-02-05T23:56:56.041Z,12.73
2019-02-05T23:59:29.173Z,12.53
